Observations for WELLINGTON INTL, New Zealand (NZWN)

NZWN 230530Z AUTO 01015KT 9999 NCD 25/17 Q1012 NOSIG
NZWN 230500Z AUTO 01015KT 9999 NCD 25/18 Q1012 NOSIG
NZWN 230430Z AUTO 36014KT 9999 NCD 25/19 Q1012 NOSIG
NZWN 230400Z AUTO 01015KT 9999 NCD 25/19 Q1012 NOSIG
NZWN 230330Z AUTO 01017KT 9999 NCD 25/19 Q1012 NOSIG
NZWN 230300Z AUTO 01017KT 9999 NCD 26/19 Q1012 NOSIG
NZWN 230230Z AUTO 36017KT 9999 FEW025/// 25/18 Q1013 NOSIG  
NZWN 230200Z AUTO 34014KT 310V010 9999 FEW026/// 25/18 Q1013 NOSIG  
NZWN 230130Z AUTO 36016KT 9999 FEW027/// 25/19 Q1013 NOSIG  
NZWN 230100Z AUTO 36015KT 9999 FEW027/// 25/18 Q1013 NOSIG  
NZWN 230030Z AUTO 36017KT 9999 SCT025/// 25/18 Q1013 NOSIG  
NZWN 230000Z AUTO 36016KT 9999 SCT024/// BKN029/// 25/19 Q1013 NOSIG
NZWN 222330Z AUTO 36014KT 9999 FEW024/// BKN032/// 25/19 Q1014 NOSIG
NZWN 222300Z AUTO 36014KT 9999 SCT024/// BKN033/// 23/18 Q1014 NOSIG
NZWN 222230Z AUTO 01013KT 9999 FEW016/// SCT038/// 24/19 Q1014 NOSIG
NZWN 222200Z AUTO 36014KT 9999 BKN018/// BKN026/// OVC037/// 23/19 Q1014 NOSIG  
NZWN 222130Z AUTO 36014KT 9999 SCT021/// BKN027/// BKN034/// 22/19 Q1014 NOSIG  
NZWN 222100Z AUTO 01013KT 9999 BKN026/// OVC035/// 22/18 Q1014 NOSIG
NZWN 222030Z AUTO 01013KT 9999 SCT023/// BKN029/// 22/18 Q1014 NOSIG
NZWN 222000Z AUTO 02010KT 9999 BKN029/// 22/18 Q1014 NOSIG  
NZWN 221930Z AUTO 02009KT 9999 SCT018/// OVC026/// 21/18 Q1014 NOSIG
NZWN 221900Z AUTO 03008KT 9999 BKN018/// 21/18 Q1014 NOSIG  
NZWN 221830Z AUTO 01009KT 9999 BKN020/// OVC026/// 21/17 Q1014 NOSIG
NZWN 221800Z AUTO 02010KT 9999 OVC017/// 21/17 Q1013 NOSIG  
NZWN 221730Z AUTO 02009KT 9999 OVC019/// 20/17 Q1013 NOSIG  
NZWN 221700Z AUTO 02012KT 9999 OVC019/// 20/17 Q1013 NOSIG  
NZWN 221630Z AUTO 04011KT 9999 OVC019/// 20/17 Q1013 NOSIG  
NZWN 221600Z AUTO 04011KT 9999 OVC020/// 20/17 Q1013 NOSIG  
NZWN 221530Z AUTO 04010KT 9999 OVC021/// 20/17 Q1013 NOSIG  
NZWN 221500Z AUTO 02013KT 9999 BKN019/// 20/17 Q1013 NOSIG  
NZWN 221430Z AUTO 02012KT 9999 BKN019/// 20/17 Q1013 NOSIG  
NZWN 221400Z AUTO 01015KT 9999 BKN018/// 20/18 Q1013 NOSIG  
NZWN 221330Z AUTO 01013KT 9999 BKN018/// 20/18 Q1013 NOSIG  
NZWN 221300Z AUTO 02011KT 9999 BKN017/// 20/18 Q1013 NOSIG  
NZWN 221230Z AUTO 01015KT 9999 BKN016/// 20/17 Q1013 NOSIG  
NZWN 221200Z AUTO 02012KT 9999 FEW016/// 20/17 Q1013 NOSIG  
NZWN 221130Z AUTO 02013KT 9999 BKN018/// 20/17 Q1013 NOSIG  
NZWN 221100Z AUTO 01011KT 9999 SCT016/// BKN024/// 20/18 Q1013 NOSIG
NZWN 221030Z AUTO 02010KT 350V050 9999 BKN017/// BKN023/// 20/18 Q1013 NOSIG
NZWN 221000Z AUTO 01015KT 9999 SCT017/// BKN022/// 20/18 Q1013 NOSIG
NZWN 220930Z AUTO 01014KT 9999 BKN018/// 21/18 Q1013 NOSIG  
NZWN 220900Z AUTO 36014KT 9999 BKN018/// 21/18 Q1013 NOSIG  
NZWN 220830Z AUTO 35013KT 9999 OVC017/// 21/18 Q1013 NOSIG  
NZWN 220800Z AUTO 36013KT 9999 BKN018/// 21/18 Q1012 NOSIG  
NZWN 220730Z AUTO 35013KT 9999 SCT018/// 21/18 Q1012 NOSIG  
NZWN 220700Z AUTO 35014KT 9999 NCD 22/18 Q1012 NOSIG
NZWN 220630Z AUTO 36017KT 9999 SCT095/// 22/18 Q1012 NOSIG  
NZWN 220600Z AUTO 36016KT 9999 SCT095/// 23/18 Q1012 NOSIG  
NZWN 220530Z AUTO 34017KT 9999 NCD 23/17 Q1012 NOSIG
NZWN 220500Z AUTO 36016KT 9999 BKN100/// 23/16 Q1012 NOSIG